EDT,Max TemperatureF,Mean TemperatureF,Min TemperatureF,Max Dew PointF,MeanDew PointF,Min DewpointF,Max Humidity, Mean Humidity, Min Humidity, Max Sea Level PressureIn, Mean Sea Level PressureIn, Min Sea Level PressureIn, Max VisibilityMiles, Mean VisibilityMiles, Min VisibilityMiles, Max Wind SpeedMPH, Mean Wind SpeedMPH, Max Gust SpeedMPH,PrecipitationIn, CloudCover, Events, WindDirDegrees
2013-3-1,37,31,25,32,27,25,100,82,64,29.69,29.59,29.53,10,7,0,16,6,21,0.00,6,Fog,315
2013-3-2,39,34,28,27,25,23,85,70,54,29.69,29.66,29.62,10,10,6,15,8,20,T,7,Snow,314
2013-3-3,38,33,27,30,26,21,92,78,64,29.66,29.62,29.56,10,6,1,18,7,26,0.03,8,Snow,308
2013-3-4,34,31,27,27,22,19,85,77,69,29.79,29.64,29.59,10,7,1,24,15,31,0.01,7,Snow,310
2013-3-5,42,34,26,30,24,19,82,66,49,30.09,29.97,29.80,10,10,10,15,6,21,T,7,,334
2013-3-6,37,34,31,32,28,24,89,74,59,30.20,30.14,30.09,10,9,5,22,12,33,T,8,Snow,55
2013-3-7,34,32,30,28,26,23,92,81,69,30.17,30.10,30.05,10,4,1,20,12,28,0.10,8,Snow,360
2013-3-8,46,38,29,27,24,16,92,60,28,30.21,30.05,30.00,10,4,0,17,10,25,0.21,6,Fog-Snow,353
2013-3-9,55,35,15,26,18,5,100,57,13,30.37,30.26,30.19,10,10,10,12,4,17,0.00,0,,7
2013-3-10,43,31,18,29,24,17,100,77,53,30.42,30.36,30.30,10,9,7,12,3,15,0.00,0,,169
2013-3-11,48,39,30,35,30,28,92,71,49,30.31,30.20,30.13,10,10,7,14,6,18,0.00,1,,157
2013-3-12,50,44,38,49,44,36,100,96,92,30.12,29.92,29.70,10,4,0,9,6,16,0.37,8,Fog-Rain,144
2013-3-13,48,36,24,43,30,21,89,66,43,29.78,29.75,29.71,10,10,10,17,8,24,0.00,3,,294
2013-3-14,34,27,19,23,14,4,92,67,41,29.84,29.75,29.69,10,10,4,26,10,36,T,6,Snow,292
2013-3-15,39,28,16,28,16,2,85,57,29,29.86,29.71,29.60,10,8,1,17,10,33,0.01,5,Snow,269
2013-3-16,35,29,23,18,12,8,68,52,35,29.89,29.81,29.70,10,10,10,16,7,21,0.00,2,,322
2013-3-17,34,24,13,14,6,-2,88,57,26,30.33,30.07,29.90,10,10,10,26,9,39,0.00,1,,326
2013-3-18,36,22,8,20,3,-3,80,50,20,30.46,30.36,30.25,10,10,10,9,2,14,T,2,,105
2013-3-19,32,28,23,30,26,19,100,92,84,30.21,29.90,29.70,6,1,0,17,8,25,0.85,8,Fog-Snow,54
2013-3-20,36,29,22,22,19,14,100,74,47,29.78,29.71,29.67,10,9,2,23,9,31,0.01,6,Snow,247
2013-3-21,40,26,11,18,13,9,96,62,27,29.79,29.70,29.60,10,10,10,9,2,13,0.00,3,,243
2013-3-22,38,27,16,23,17,13,92,65,38,29.71,29.66,29.62,10,10,10,17,7,24,0.00,5,,289
2013-3-23,39,29,18,20,18,16,84,61,37,29.76,29.69,29.63,10,10,10,28,13,37,0.00,6,,290
2013-3-24,43,34,25,23,22,21,81,62,43,29.83,29.78,29.74,10,10,10,23,9,32,0.00,3,,311
2013-3-25,43,33,22,28,24,20,92,71,49,29.79,29.67,29.57,10,10,10,17,6,23,0.00,5,,50
2013-3-26,49,39,28,29,22,15,75,52,28,29.79,29.68,29.59,10,10,10,17,7,23,0.00,4,,329
2013-3-27,53,38,22,32,24,19,92,64,35,29.89,29.80,29.76,10,10,10,21,8,26,T,4,,329
2013-3-28,48,39,30,34,31,27,96,73,49,30.03,29.95,29.89,10,10,10,14,4,18,T,8,Rain,329
2013-3-29,55,42,29,33,30,27,92,67,41,30.05,30.03,29.99,10,10,10,18,6,24,0.00,7,,318
2013-3-30,55,41,26,29,21,12,85,52,19,30.11,30.06,30.01,10,10,10,16,4,22,0.00,2,,313
2013-3-31,59,40,20,38,22,16,92,57,21,30.13,30.01,29.79,10,10,7,18,6,25,0.13,2,Rain,165